Time;durP1;ratioP1;P1;durP2;ratioP2;P2;SDS_P1;SDS_P2;PMS_P1;PMS_P2;Temp;Humidity;BMP_temperature;BMP_pressure;BME280_temperature;BME280_humidity;BME280_pressure;Samples;Min_cycle;Max_cycle;Signal;HPM_P1;HPM_P2
2021/05/01 00:01:56;;;;;;;30.75;23.73;;;9.10;96.20;;;;;;5135674;27;20118;-74
2021/05/01 00:04:21;;;;;;;35.45;25.00;;;9.20;96.30;;;;;;5135859;27;20436;-74
2021/05/01 00:06:47;;;;;;;30.80;24.52;;;9.20;96.30;;;;;;5135637;27;20035;-74
2021/05/01 00:09:13;;;;;;;32.42;24.35;;;9.20;96.30;;;;;;5135844;27;20035;-74
2021/05/01 00:11:38;;;;;;;31.75;24.90;;;9.20;96.30;;;;;;5135915;27;20123;-74
2021/05/01 00:14:05;;;;;;;30.52;23.85;;;9.20;96.30;;;;;;5135590;27;20111;-74
2021/05/01 00:16:31;;;;;;;32.97;25.08;;;9.20;96.30;;;;;;5135258;27;20061;-74
2021/05/01 00:18:58;;;;;;;35.30;26.30;;;9.20;96.30;;;;;;5135579;27;20534;-74
2021/05/01 00:21:25;;;;;;;37.53;28.10;;;9.20;96.40;;;;;;5135580;27;20106;-74
2021/05/01 00:23:51;;;;;;;36.17;27.73;;;9.20;96.30;;;;;;5134701;27;20492;-74
2021/05/01 00:26:17;;;;;;;35.40;26.73;;;9.20;96.30;;;;;;5135487;27;20035;-74
2021/05/01 00:28:43;;;;;;;36.63;27.70;;;9.20;96.30;;;;;;5135354;27;20062;-74
2021/05/01 00:31:09;;;;;;;33.65;26.55;;;9.10;96.40;;;;;;5135139;27;20050;-74
2021/05/01 00:33:35;;;;;;;38.55;28.85;;;9.00;96.50;;;;;;5135041;27;20039;-74
2021/05/01 00:36:02;;;;;;;35.95;27.67;;;9.00;96.50;;;;;;5134815;27;20046;-74
2021/05/01 00:38:28;;;;;;;36.92;26.70;;;8.90;96.60;;;;;;5135010;27;20394;-74
2021/05/01 00:40:54;;;;;;;32.58;25.13;;;8.90;96.80;;;;;;5135094;27;20035;-74
2021/05/01 00:43:19;;;;;;;31.48;23.35;;;8.90;96.80;;;;;;5135551;27;20049;-74
2021/05/01 00:45:46;;;;;;;34.03;26.38;;;8.90;96.60;;;;;;5134864;27;20117;-74
2021/05/01 00:48:12;;;;;;;32.35;24.80;;;8.90;96.70;;;;;;5134986;27;20115;-74
2021/05/01 00:50:37;;;;;;;30.45;24.52;;;8.90;96.60;;;;;;5135111;27;20067;-74
2021/05/01 00:53:03;;;;;;;35.03;26.42;;;8.90;96.60;;;;;;5134754;27;20043;-74
2021/05/01 00:55:31;;;;;;;33.95;25.50;;;8.80;96.50;;;;;;5134483;27;20556;-74
2021/05/01 00:57:57;;;;;;;32.05;24.33;;;8.80;96.80;;;;;;5133906;27;20092;-74
2021/05/01 01:02:59;;;;;;;31.45;24.27;;;8.80;96.50;;;;;;5135098;27;20483;-74
2021/05/01 01:05:25;;;;;;;33.95;24.77;;;8.80;96.60;;;;;;5134306;27;20041;-74
2021/05/01 01:07:51;;;;;;;29.52;22.80;;;8.80;96.60;;;;;;5134346;27;20039;-74
2021/05/01 01:10:17;;;;;;;33.70;25.02;;;8.80;96.60;;;;;;5134701;27;20073;-74
2021/05/01 01:12:43;;;;;;;31.60;24.20;;;8.80;96.50;;;;;;5135111;27;20058;-74
2021/05/01 01:15:09;;;;;;;34.28;24.33;;;8.80;96.60;;;;;;5134023;27;20427;-74
2021/05/01 01:17:35;;;;;;;33.17;25.42;;;8.80;96.70;;;;;;5133778;27;20054;-74
2021/05/01 01:20:02;;;;;;;35.28;24.88;;;8.90;96.80;;;;;;5134623;27;20036;-74
2021/05/01 01:22:28;;;;;;;33.90;25.08;;;8.90;96.70;;;;;;5134537;27;20036;-74
2021/05/01 01:24:54;;;;;;;35.17;25.70;;;8.90;96.70;;;;;;5134426;27;20042;-74
2021/05/01 01:27:20;;;;;;;30.63;24.48;;;8.90;96.60;;;;;;5134874;27;20035;-74
2021/05/01 01:29:47;;;;;;;30.73;22.65;;;8.90;96.60;;;;;;5135130;27;20046;-74
2021/05/01 01:32:13;;;;;;;34.75;26.80;;;8.90;96.70;;;;;;5134643;27;20080;-74
2021/05/01 01:34:43;;;;;;;30.88;24.38;;;9.00;96.70;;;;;;5132916;27;20039;-74
2021/05/01 01:37:10;;;;;;;33.72;24.38;;;8.90;96.70;;;;;;5134768;27;20051;-74
2021/05/01 01:39:35;;;;;;;30.85;24.88;;;8.90;96.70;;;;;;5134189;27;20031;-74
2021/05/01 01:42:01;;;;;;;30.73;23.67;;;8.80;96.60;;;;;;5134140;27;20031;-74
2021/05/01 01:44:27;;;;;;;33.40;24.67;;;8.80;96.70;;;;;;5133928;27;20050;-74
2021/05/01 01:46:53;;;;;;;29.55;23.00;;;8.80;96.60;;;;;;5134062;27;20064;-74
2021/05/01 01:49:19;;;;;;;33.35;24.15;;;8.80;96.70;;;;;;5134496;27;20045;-74
2021/05/01 01:51:44;;;;;;;30.23;22.20;;;8.80;96.80;;;;;;5134575;27;20032;-74
2021/05/01 01:54:10;;;;;;;32.90;24.52;;;8.80;96.70;;;;;;5134649;27;20035;-74
2021/05/01 01:56:39;;;;;;;31.60;24.73;;;8.80;96.60;;;;;;5133656;27;20492;-74
2021/05/01 01:59:06;;;;;;;33.50;25.02;;;8.80;96.70;;;;;;5134014;27;20035;-74
2021/05/01 02:01:32;;;;;;;26.52;20.73;;;8.80;96.70;;;;;;5134288;27;20036;-74
2021/05/01 02:03:58;;;;;;;28.98;21.88;;;8.80;96.70;;;;;;5134378;27;20039;-74
2021/05/01 02:06:24;;;;;;;30.75;23.17;;;8.80;96.70;;;;;;5133591;27;20046;-74
2021/05/01 02:08:50;;;;;;;36.38;26.80;;;8.70;96.70;;;;;;5133809;27;20036;-74
2021/05/01 02:11:16;;;;;;;32.78;24.83;;;8.70;96.80;;;;;;5134254;27;20045;-74
2021/05/01 02:13:41;;;;;;;32.75;24.52;;;8.70;96.80;;;;;;5134179;27;20066;-74
2021/05/01 02:16:08;;;;;;;34.40;25.77;;;8.70;96.80;;;;;;5133533;27;20455;-74
2021/05/01 02:18:33;;;;;;;35.95;27.42;;;8.70;96.90;;;;;;5134029;27;20071;-74
2021/05/01 02:21:00;;;;;;;37.33;27.80;;;8.70;96.90;;;;;;5134470;27;20588;-74
2021/05/01 02:23:25;;;;;;;37.03;27.08;;;8.70;97.10;;;;;;5133990;27;20402;-74
2021/05/01 02:25:51;;;;;;;36.45;26.15;;;8.70;97.00;;;;;;5132406;27;20114;-74
2021/05/01 02:28:18;;;;;;;39.88;28.75;;;8.70;97.00;;;;;;5134364;27;20037;-74
2021/05/01 02:30:44;;;;;;;34.78;25.60;;;8.70;97.00;;;;;;5137829;27;20035;-74
2021/05/01 02:33:10;;;;;;;39.03;27.70;;;8.70;97.00;;;;;;5137862;27;20080;-74
2021/05/01 02:35:38;;;;;;;34.58;25.45;;;8.60;97.10;;;;;;5137270;27;20493;-74
2021/05/01 02:38:04;;;;;;;35.60;26.70;;;8.60;97.30;;;;;;5137385;27;20042;-74
2021/05/01 02:40:32;;;;;;;34.65;25.48;;;8.50;97.30;;;;;;5137365;27;20067;-74
2021/05/01 02:43:00;;;;;;;36.30;26.73;;;8.50;97.30;;;;;;5137355;27;20420;-74
2021/05/01 02:45:26;;;;;;;34.65;25.75;;;8.50;97.40;;;;;;5135796;27;20035;-74
2021/05/01 02:47:52;;;;;;;37.78;27.08;;;8.50;97.40;;;;;;5137208;27;20046;-74
2021/05/01 02:50:19;;;;;;;36.03;26.30;;;8.50;97.50;;;;;;5137423;27;20409;-74
2021/05/01 02:52:45;;;;;;;35.47;26.90;;;8.50;97.40;;;;;;5137166;27;20039;-74
2021/05/01 02:55:12;;;;;;;34.90;25.65;;;8.50;97.40;;;;;;5137137;27;20035;-74
2021/05/01 02:57:39;;;;;;;39.80;28.00;;;8.50;97.40;;;;;;5137126;27;20049;-74
2021/05/01 03:00:10;;;;;;;34.22;25.17;;;8.50;97.40;;;;;;5137516;27;20035;-74
2021/05/01 03:02:36;;;;;;;33.58;24.63;;;8.60;97.40;;;;;;5136966;27;20380;-74
2021/05/01 03:05:03;;;;;;;34.80;25.45;;;8.60;97.40;;;;;;5136570;27;20121;-74
2021/05/01 03:07:29;;;;;;;32.40;23.77;;;8.60;97.40;;;;;;5136611;27;20039;-74
2021/05/01 03:09:55;;;;;;;35.05;26.65;;;8.60;97.30;;;;;;5137219;27;20092;-74
2021/05/01 03:12:21;;;;;;;36.85;27.45;;;8.70;97.20;;;;;;5136839;27;20088;-74
2021/05/01 03:14:47;;;;;;;36.95;27.02;;;8.70;97.30;;;;;;5136684;27;20067;-74
2021/05/01 03:17:14;;;;;;;32.95;26.60;;;8.70;97.30;;;;;;5135840;27;20376;-74
2021/05/01 03:19:40;;;;;;;35.55;26.35;;;8.70;97.30;;;;;;5137311;27;20391;-74
2021/05/01 03:22:07;;;;;;;32.70;25.50;;;8.70;97.20;;;;;;5136588;27;20043;-74
2021/05/01 03:24:34;;;;;;;35.53;26.33;;;8.70;97.50;;;;;;5136299;27;20519;-74
2021/05/01 03:27:00;;;;;;;33.05;25.73;;;8.70;97.20;;;;;;5136846;27;20069;-74
2021/05/01 03:29:26;;;;;;;36.92;27.98;;;8.70;97.20;;;;;;5135673;27;20038;-74
2021/05/01 03:31:52;;;;;;;35.53;26.92;;;8.70;97.10;;;;;;5136382;27;20031;-74
2021/05/01 03:34:17;;;;;;;33.30;25.00;;;8.60;97.00;;;;;;5136648;27;20459;-74
2021/05/01 03:36:43;;;;;;;38.03;28.63;;;8.60;97.00;;;;;;5136188;27;20103;-74
2021/05/01 03:39:09;;;;;;;33.80;27.10;;;8.50;96.90;;;;;;5136374;27;20039;-74
2021/05/01 03:41:35;;;;;;;32.78;25.67;;;8.50;97.00;;;;;;5135819;27;20165;-74
2021/05/01 03:44:01;;;;;;;34.28;25.65;;;8.40;96.80;;;;;;5136483;27;20466;-74
2021/05/01 03:46:27;;;;;;;36.72;27.48;;;8.40;96.90;;;;;;5136397;27;20035;-74
2021/05/01 03:48:54;;;;;;;40.55;27.15;;;8.40;97.00;;;;;;5135990;27;20039;-74
2021/05/01 03:51:20;;;;;;;38.83;26.15;;;8.30;97.00;;;;;;5135919;27;20031;-74
2021/05/01 03:53:45;;;;;;;34.85;26.48;;;8.30;96.80;;;;;;5135873;27;20045;-74
2021/05/01 03:56:11;;;;;;;33.65;25.85;;;8.20;96.80;;;;;;5135693;27;20035;-74
2021/05/01 03:58:37;;;;;;;36.92;27.38;;;8.20;96.70;;;;;;5135930;27;20039;-74
2021/05/01 04:01:06;;;;;;;33.58;26.00;;;8.10;96.80;;;;;;5136488;27;20088;-74
2021/05/01 04:03:31;;;;;;;37.22;27.17;;;8.10;96.80;;;;;;5135804;27;20038;-74
2021/05/01 04:05:58;;;;;;;33.85;25.30;;;8.10;96.90;;;;;;5135414;27;20039;-74
2021/05/01 04:08:24;;;;;;;32.30;24.77;;;8.10;96.90;;;;;;5135857;27;20450;-74
2021/05/01 04:10:50;;;;;;;33.42;24.77;;;8.00;96.90;;;;;;5135591;27;20071;-74
2021/05/01 04:13:15;;;;;;;29.88;23.42;;;8.00;97.20;;;;;;5135941;27;20042;-74
2021/05/01 04:15:41;;;;;;;33.78;24.92;;;8.00;96.80;;;;;;5134209;27;20112;-74
2021/05/01 04:18:12;;;;;;;34.97;26.58;;;7.90;96.70;;;;;;5136017;27;20035;-74
2021/05/01 04:20:38;;;;;;;35.30;25.38;;;8.00;96.90;;;;;;5135490;27;20486;-74
2021/05/01 04:23:03;;;;;;;34.38;26.08;;;7.90;96.80;;;;;;5135463;27;20031;-74
2021/05/01 04:25:29;;;;;;;32.22;25.10;;;7.90;97.20;;;;;;5135348;27;20112;-73
2021/05/01 04:27:55;;;;;;;32.17;22.92;;;7.90;96.90;;;;;;5135230;27;20035;-74
2021/05/01 04:30:20;;;;;;;30.05;23.58;;;7.90;96.80;;;;;;5135743;27;20100;-74
2021/05/01 04:32:47;;;;;;;29.60;22.40;;;7.90;96.80;;;;;;5135941;27;20035;-74
2021/05/01 04:35:12;;;;;;;30.25;23.63;;;7.90;96.80;;;;;;5134767;27;20425;-74
2021/05/01 04:37:38;;;;;;;32.20;25.05;;;7.90;96.90;;;;;;5134988;27;20041;-74
2021/05/01 04:40:05;;;;;;;33.00;25.58;;;7.90;96.90;;;;;;5135439;27;20035;-74
2021/05/01 04:42:30;;;;;;;31.40;24.73;;;7.90;96.80;;;;;;5135152;27;20027;-74
2021/05/01 04:44:56;;;;;;;31.13;24.63;;;7.90;96.90;;;;;;5135055;27;20046;-74
2021/05/01 04:47:22;;;;;;;30.67;23.65;;;7.90;97.00;;;;;;5134796;27;20491;-74
2021/05/01 04:49:48;;;;;;;34.75;25.67;;;7.90;97.00;;;;;;5134821;27;20035;-74
2021/05/01 04:52:14;;;;;;;36.22;25.85;;;7.90;97.10;;;;;;5134437;27;20041;-74
2021/05/01 04:54:40;;;;;;;26.52;21.83;;;7.90;97.10;;;;;;5134707;27;20110;-74
2021/05/01 04:57:06;;;;;;;29.90;22.38;;;7.90;97.10;;;;;;5134724;27;20050;-74
2021/05/01 04:59:31;;;;;;;29.05;22.23;;;8.00;97.10;;;;;;5135262;27;20033;-74
2021/05/01 05:01:57;;;;;;;25.83;20.70;;;7.90;97.00;;;;;;5134965;27;20035;-74
2021/05/01 05:04:23;;;;;;;31.10;23.67;;;8.00;97.00;;;;;;5134436;27;20039;-75
2021/05/01 05:06:49;;;;;;;31.90;24.95;;;8.00;96.90;;;;;;5134831;27;20039;-74
2021/05/01 05:09:14;;;;;;;30.55;23.50;;;7.90;96.90;;;;;;5133619;27;20486;-72
2021/05/01 05:11:40;;;;;;;31.88;23.20;;;8.00;97.00;;;;;;5134552;27;20039;-73
2021/05/01 05:14:07;;;;;;;29.73;23.45;;;7.90;97.00;;;;;;5134520;27;20035;-74
2021/05/01 05:16:38;;;;;;;46.55;24.60;;;8.00;97.00;;;;;;5132840;27;20048;-74
2021/05/01 05:19:06;;;;;;;27.73;21.92;;;8.00;96.90;;;;;;5133914;27;20043;-74
2021/05/01 05:21:35;;;;;;;29.30;22.58;;;8.00;96.90;;;;;;5134631;27;20035;-74
2021/05/01 05:24:02;;;;;;;28.83;22.42;;;8.00;97.00;;;;;;5134784;27;20043;-74
2021/05/01 05:26:28;;;;;;;28.52;22.52;;;8.00;96.90;;;;;;5134498;27;20434;-74
2021/05/01 05:28:54;;;;;;;29.58;22.75;;;8.00;97.00;;;;;;5134587;27;20070;-72
2021/05/01 05:31:19;;;;;;;28.92;22.27;;;8.00;96.90;;;;;;5134681;27;20031;-73
2021/05/01 05:33:45;;;;;;;31.25;22.15;;;7.90;96.90;;;;;;5134446;27;20031;-73
2021/05/01 05:36:10;;;;;;;30.02;22.80;;;8.00;96.90;;;;;;5134097;27;20402;-74
2021/05/01 05:38:39;;;;;;;30.25;22.98;;;8.00;96.80;;;;;;5134572;27;20042;-74
2021/05/01 05:41:05;;;;;;;39.88;27.33;;;8.00;97.00;;;;;;5134721;27;20091;-74
2021/05/01 05:43:33;;;;;;;30.42;23.27;;;8.00;97.00;;;;;;5134346;27;20039;-72
2021/05/01 05:46:10;;;;;;;35.83;26.25;;;8.00;97.20;;;;;;5133960;27;20054;-72
2021/05/01 05:48:36;;;;;;;31.20;24.27;;;8.00;97.20;;;;;;5134487;27;20456;-73
2021/05/01 05:51:03;;;;;;;33.45;24.58;;;8.10;97.30;;;;;;5134424;27;20039;-73
2021/05/01 05:53:29;;;;;;;36.00;25.10;;;8.10;97.30;;;;;;5134567;27;20047;-74
2021/05/01 05:55:55;;;;;;;34.50;26.23;;;8.20;97.20;;;;;;5133766;27;20046;-73
2021/05/01 05:58:21;;;;;;;39.03;28.30;;;8.20;97.20;;;;;;5134685;27;20039;-73
2021/05/01 06:00:47;;;;;;;45.50;30.98;;;8.20;97.40;;;;;;5134024;27;20031;-73
2021/05/01 06:03:14;;;;;;;44.22;31.55;;;8.40;97.50;;;;;;5134463;27;20084;-73
2021/05/01 06:05:43;;;;;;;49.15;33.70;;;8.50;97.50;;;;;;5137834;27;20039;-74
2021/05/01 06:08:10;;;;;;;50.03;34.20;;;8.80;97.70;;;;;;5137788;27;20042;-74
2021/05/01 06:10:37;;;;;;;44.78;30.90;;;9.00;97.60;;;;;;5138188;27;20035;-73
2021/05/01 06:13:04;;;;;;;45.97;31.35;;;9.20;97.10;;;;;;5138080;27;20038;-72
2021/05/01 06:15:31;;;;;;;40.35;29.23;;;9.40;97.10;;;;;;5137602;27;20047;-72
2021/05/01 06:17:59;;;;;;;39.75;29.50;;;9.60;96.80;;;;;;5119441;27;20447;-72
2021/05/01 06:20:27;;;;;;;37.42;27.17;;;9.60;96.40;;;;;;5138654;27;20041;-74
2021/05/01 06:22:53;;;;;;;43.45;29.55;;;9.50;96.20;;;;;;5137917;27;20031;-74
2021/05/01 06:25:19;;;;;;;34.53;25.90;;;9.40;96.30;;;;;;5137415;27;20035;-74
2021/05/01 06:27:45;;;;;;;34.97;24.63;;;9.40;96.40;;;;;;5137607;27;20031;-73
2021/05/01 06:30:12;;;;;;;34.22;26.23;;;9.60;96.40;;;;;;5137873;27;20046;-74
2021/05/01 06:32:38;;;;;;;34.15;25.02;;;9.80;96.40;;;;;;5137565;27;20031;-74
2021/05/01 06:35:05;;;;;;;29.95;22.38;;;10.10;96.20;;;;;;5137061;27;20050;-74
2021/05/01 06:37:32;;;;;;;30.00;22.73;;;10.40;95.80;;;;;;5137303;27;20035;-74
2021/05/01 06:40:05;;;;;;;24.02;19.13;;;10.50;95.80;;;;;;5137405;27;20038;-74
2021/05/01 06:42:33;;;;;;;;;;;10.40;95.60;;;;;;5137907;27;20035;-74
2021/05/01 06:45:12;;;;;;;21.92;18.15;;;10.30;95.00;;;;;;5137365;27;19919;-74
2021/05/01 06:47:52;;;;;;;24.30;18.42;;;10.30;95.00;;;;;;5137160;27;20056;-74
2021/05/01 06:50:26;;;;;;;20.48;17.02;;;10.20;95.30;;;;;;5137206;27;20475;-74
2021/05/01 06:52:53;;;;;;;22.48;17.17;;;10.20;95.00;;;;;;5137716;27;20050;-74
2021/05/01 06:55:21;;;;;;;19.75;15.77;;;10.20;95.20;;;;;;5136868;27;20038;-74
2021/05/01 06:57:48;;;;;;;19.13;16.42;;;10.20;95.20;;;;;;5137136;27;20038;-74
2021/05/01 07:00:16;;;;;;;17.48;14.57;;;10.20;95.50;;;;;;5137021;27;20063;-74
2021/05/01 07:02:52;;;;;;;17.55;14.02;;;10.20;95.40;;;;;;5136859;27;20035;-74
2021/05/01 07:05:20;;;;;;;17.60;14.82;;;10.20;95.10;;;;;;5137006;27;20046;-74
2021/05/01 07:07:47;;;;;;;16.48;13.68;;;10.20;95.00;;;;;;5136736;27;20441;-74
2021/05/01 07:10:14;;;;;;;17.33;14.02;;;10.10;95.10;;;;;;5137450;27;20475;-74
2021/05/01 07:12:41;;;;;;;18.25;15.10;;;10.10;95.00;;;;;;5137277;27;20487;-72
2021/05/01 07:15:09;;;;;;;17.10;13.52;;;10.10;95.00;;;;;;5135352;27;20556;-73
2021/05/01 07:17:35;;;;;;;19.05;15.45;;;10.10;95.00;;;;;;5136626;27;20039;-73
2021/05/01 07:20:03;;;;;;;19.05;14.40;;;10.20;95.20;;;;;;5137097;27;20096;-73
2021/05/01 07:22:30;;;;;;;17.42;14.88;;;10.20;95.00;;;;;;5137449;27;20567;-73
2021/05/01 07:24:57;;;;;;;18.45;14.57;;;10.30;95.00;;;;;;5136248;27;20414;-73
2021/05/01 07:27:48;;;;;;;18.30;14.90;;;10.20;94.80;;;;;;5136899;27;20035;-74
2021/05/01 07:30:16;;;;;;;21.98;15.40;;;10.20;94.80;;;;;;5136862;27;20477;-74
2021/05/01 07:32:45;;;;;;;17.20;14.48;;;10.30;95.10;;;;;;5135887;27;20071;-73
2021/05/01 07:35:13;;;;;;;17.15;13.98;;;10.30;94.90;;;;;;5134753;27;20483;-73
2021/05/01 07:37:43;;;;;;;15.95;13.35;;;10.40;94.90;;;;;;5136336;27;20043;-74
2021/05/01 07:40:12;;;;;;;16.95;14.20;;;10.60;94.80;;;;;;5136144;27;20164;-74
2021/05/01 07:42:42;;;;;;;16.30;13.70;;;10.60;94.30;;;;;;5137191;27;20348;-73
2021/05/01 07:45:11;;;;;;;15.45;13.13;;;10.70;94.70;;;;;;5136019;27;20371;-73
2021/05/01 07:47:37;;;;;;;14.98;12.10;;;10.90;94.00;;;;;;5134973;27;20038;-73
2021/05/01 07:50:07;;;;;;;18.55;13.35;;;11.00;93.80;;;;;;5136105;27;20035;-72
2021/05/01 07:52:35;;;;;;;16.02;13.57;;;11.00;93.60;;;;;;5134737;27;20061;-73
2021/05/01 07:55:02;;;;;;;16.20;13.02;;;10.90;93.80;;;;;;5134540;27;20065;-73
2021/05/01 07:57:28;;;;;;;16.63;12.75;;;10.90;93.40;;;;;;5135808;27;20031;-73
2021/05/01 07:59:54;;;;;;;14.98;12.25;;;11.00;93.50;;;;;;5135996;27;20095;-72
2021/05/01 08:02:19;;;;;;;17.30;14.38;;;11.00;93.00;;;;;;5135713;27;20066;-72
2021/05/01 08:04:45;;;;;;;15.95;12.75;;;11.00;93.40;;;;;;5135699;27;20449;-72
2021/05/01 08:07:11;;;;;;;19.20;13.05;;;11.00;93.20;;;;;;5135668;27;20057;-72
2021/05/01 08:09:37;;;;;;;19.05;14.52;;;11.00;93.40;;;;;;5136189;27;20039;-72
2021/05/01 08:12:02;;;;;;;18.77;14.02;;;11.10;93.60;;;;;;5134487;27;20106;-72
2021/05/01 08:14:28;;;;;;;16.92;13.48;;;11.20;93.40;;;;;;5135254;27;20042;-73
2021/05/01 08:16:54;;;;;;;14.68;12.50;;;11.40;92.70;;;;;;5135496;27;20031;-72
2021/05/01 08:19:20;;;;;;;18.02;13.95;;;11.40;92.40;;;;;;5135747;27;20031;-72
2021/05/01 08:21:46;;;;;;;15.63;13.30;;;11.60;92.50;;;;;;5136019;27;20527;-72
2021/05/01 08:24:11;;;;;;;16.85;13.73;;;11.70;93.00;;;;;;5135202;27;20407;-72
2021/05/01 08:26:37;;;;;;;16.70;14.20;;;11.60;92.40;;;;;;5134817;27;20482;-72
2021/05/01 08:29:03;;;;;;;19.38;14.60;;;11.40;92.40;;;;;;5135512;27;20494;-72
2021/05/01 08:31:29;;;;;;;21.48;15.90;;;11.40;92.90;;;;;;5135332;27;20035;-72
2021/05/01 08:33:55;;;;;;;19.50;15.32;;;11.40;93.20;;;;;;5135778;27;20039;-72
2021/05/01 08:36:21;;;;;;;20.30;15.23;;;11.40;93.70;;;;;;5134777;27;20039;-72
2021/05/01 08:38:47;;;;;;;18.75;14.30;;;11.40;93.20;;;;;;5135084;27;20038;-72
2021/05/01 08:41:13;;;;;;;18.48;12.98;;;11.50;92.90;;;;;;5135199;27;20510;-72
2021/05/01 08:43:38;;;;;;;17.63;12.85;;;11.50;92.70;;;;;;5135292;27;20035;-72
2021/05/01 08:46:13;;;;;;;17.73;13.48;;;11.50;92.60;;;;;;5133354;27;20041;-72
2021/05/01 08:48:43;;;;;;;17.85;13.65;;;11.60;92.10;;;;;;5135739;27;20110;-72
2021/05/01 08:51:10;;;;;;;17.75;13.90;;;11.70;92.00;;;;;;5135032;27;20447;-72
2021/05/01 08:53:35;;;;;;;16.63;12.88;;;11.70;92.00;;;;;;5134725;27;20113;-72
2021/05/01 08:56:02;;;;;;;20.65;13.57;;;11.80;91.80;;;;;;5134399;27;20043;-72
2021/05/01 08:58:28;;;;;;;17.48;13.82;;;11.90;91.80;;;;;;5135081;27;20046;-72
2021/05/01 09:00:54;;;;;;;17.48;13.60;;;11.80;91.90;;;;;;5134843;27;20467;-73
2021/05/01 09:03:23;;;;;;;18.38;14.18;;;11.80;92.00;;;;;;5134624;27;20039;-72
2021/05/01 09:05:51;;;;;;;20.05;14.68;;;11.70;92.40;;;;;;5134162;27;20087;-72
2021/05/01 09:08:19;;;;;;;14.25;11.38;;;11.70;92.10;;;;;;5134425;27;20031;-72
2021/05/01 09:10:47;;;;;;;18.10;12.93;;;11.70;91.70;;;;;;5134522;27;20035;-72
2021/05/01 09:13:24;;;;;;;18.77;14.65;;;11.80;91.20;;;;;;5134706;27;20059;-73
2021/05/01 09:16:06;;;;;;;19.83;13.85;;;12.00;92.40;;;;;;5134135;27;20052;-73
2021/05/01 09:18:53;;;;;;;18.95;12.57;;;12.00;91.20;;;;;;5134940;27;20035;-73
2021/05/01 09:21:25;;;;;;;19.27;11.82;;;12.00;91.40;;;;;;5134764;27;20118;-73
2021/05/01 09:23:52;;;;;;;15.13;11.40;;;11.70;90.60;;;;;;5135106;27;20466;-72
2021/05/01 09:26:32;;;;;;;18.10;11.32;;;11.50;90.60;;;;;;5133940;27;20120;-72
2021/05/01 09:28:58;;;;;;;23.33;13.70;;;11.20;90.60;;;;;;5134701;27;20039;-72
2021/05/01 09:31:27;;;;;;;17.08;12.45;;;10.90;91.30;;;;;;5134155;27;20114;-72
2021/05/01 09:33:55;;;;;;;18.73;14.45;;;10.70;92.00;;;;;;5134557;27;20035;-73
2021/05/01 09:36:23;;;;;;;18.38;13.20;;;10.50;92.70;;;;;;5133855;27;20088;-73
2021/05/01 09:38:51;;;;;;;18.33;14.63;;;10.30;92.80;;;;;;5138327;27;20493;-73
2021/05/01 09:41:23;;;;;;;19.90;14.93;;;10.30;93.10;;;;;;5140959;27;20031;-72
2021/05/01 09:44:04;;;;;;;17.65;13.95;;;10.30;93.40;;;;;;5140444;27;20122;-72
2021/05/01 09:46:52;;;;;;;18.63;14.52;;;10.40;93.70;;;;;;5139573;27;20039;-73
2021/05/01 09:49:23;;;;;;;18.60;14.82;;;10.50;93.90;;;;;;5141092;27;20046;-71
2021/05/01 09:51:57;;;;;;;19.67;14.50;;;10.60;93.50;;;;;;5141249;27;20039;-72
2021/05/01 09:54:41;;;;;;;23.17;14.68;;;10.60;93.70;;;;;;5140456;27;20035;-73
2021/05/01 09:57:14;;;;;;;20.92;14.05;;;10.70;93.40;;;;;;5140740;27;20035;-72
2021/05/01 09:59:42;;;;;;;22.05;15.02;;;10.80;93.90;;;;;;5140874;27;20409;-72
2021/05/01 10:02:10;;;;;;;19.90;13.98;;;10.90;93.70;;;;;;5140838;27;20038;-73
2021/05/01 10:04:36;;;;;;;16.92;13.93;;;11.00;93.50;;;;;;5140369;27;20035;-73
2021/05/01 10:07:09;;;;;;;19.45;14.00;;;11.20;93.20;;;;;;5141069;27;20526;-72
2021/05/01 10:09:36;;;;;;;;;;;11.40;92.40;;;;;;5141262;27;20039;-72
2021/05/01 10:12:14;;;;;;;17.55;13.07;;;11.60;91.70;;;;;;5140336;27;19998;-73
2021/05/01 10:14:46;;;;;;;17.50;13.73;;;11.80;91.70;;;;;;5140499;27;20043;-73
2021/05/01 10:17:16;;;;;;;16.92;13.27;;;11.80;91.70;;;;;;5140670;27;20042;-73
2021/05/01 10:19:47;;;;;;;20.20;13.00;;;11.60;91.30;;;;;;5140900;27;20035;-73
2021/05/01 10:22:31;;;;;;;19.05;13.60;;;11.40;90.50;;;;;;5141240;27;20041;-73
2021/05/01 10:25:03;;;;;;;18.25;13.57;;;11.30;91.90;;;;;;5140828;27;20550;-72
2021/05/01 10:27:41;;;;;;;17.08;13.32;;;11.10;92.30;;;;;;5140501;27;20110;-73
2021/05/01 10:30:16;;;;;;;16.95;12.70;;;11.10;91.80;;;;;;5140884;27;20058;-73
2021/05/01 10:32:47;;;;;;;16.60;12.85;;;11.00;92.30;;;;;;5141030;27;20497;-73
2021/05/01 10:35:13;;;;;;;18.67;13.02;;;11.00;91.90;;;;;;5140161;27;20045;-73
2021/05/01 10:37:55;;;;;;;15.45;12.05;;;10.90;91.60;;;;;;5140657;27;20046;-73
2021/05/01 10:40:22;;;;;;;18.05;14.60;;;11.00;92.20;;;;;;5140882;27;20046;-73
2021/05/01 10:43:07;;;;;;;20.02;14.32;;;11.10;92.50;;;;;;5140860;27;20095;-73
2021/05/01 10:45:32;;;;;;;16.92;13.45;;;11.20;92.20;;;;;;5140229;27;20050;-73
2021/05/01 10:48:07;;;;;;;20.17;13.27;;;11.40;92.50;;;;;;5140472;27;20031;-73
2021/05/01 10:50:32;;;;;;;17.65;12.63;;;11.50;91.70;;;;;;5138407;27;20042;-73
2021/05/01 10:52:58;;;;;;;15.63;11.98;;;11.60;91.40;;;;;;5137366;27;20035;-73
2021/05/01 10:55:25;;;;;;;15.32;11.65;;;11.70;91.10;;;;;;5136836;27;20120;-73
2021/05/01 10:57:58;;;;;;;18.55;11.25;;;11.70;90.80;;;;;;5137057;27;20036;-73
2021/05/01 11:00:25;;;;;;;15.18;11.25;;;11.90;90.10;;;;;;5137427;27;20031;-73
2021/05/01 11:03:00;;;;;;;16.02;11.85;;;12.00;90.00;;;;;;5136973;27;20035;-73
2021/05/01 11:05:31;;;;;;;13.38;10.57;;;12.00;89.00;;;;;;5136978;27;20080;-73
2021/05/01 11:08:29;;;;;;;17.70;11.32;;;11.80;88.80;;;;;;5137279;27;20039;-72
2021/05/01 11:10:57;;;;;;;14.52;10.23;;;11.60;88.30;;;;;;5137592;27;20035;-72
2021/05/01 11:13:29;;;;;;;11.02;9.75;;;11.20;86.00;;;;;;5136754;27;20039;-71
2021/05/01 11:16:00;;;;;;;18.63;10.57;;;11.10;86.30;;;;;;5136538;27;20108;-73
2021/05/01 11:18:27;;;;;;;13.63;10.30;;;11.00;87.40;;;;;;5136140;27;20043;-71
2021/05/01 11:20:59;;;;;;;13.88;9.98;;;11.00;87.00;;;;;;5135579;27;20031;-72
2021/05/01 11:23:28;;;;;;;13.13;9.95;;;10.90;87.00;;;;;;5137171;27;20118;-72
2021/05/01 11:25:56;;;;;;;11.65;9.65;;;10.90;87.50;;;;;;5136371;27;20057;-72
2021/05/01 11:28:24;;;;;;;11.60;10.05;;;10.90;87.40;;;;;;5136871;27;20035;-72
2021/05/01 11:30:52;;;;;;;14.65;10.90;;;11.00;88.00;;;;;;5136812;27;20031;-72
2021/05/01 11:33:20;;;;;;;14.40;10.20;;;11.00;89.80;;;;;;5137043;27;20524;-72
2021/05/01 11:35:47;;;;;;;12.20;9.75;;;11.10;90.00;;;;;;5136178;27;20035;-72
2021/05/01 11:38:19;;;;;;;13.15;9.85;;;11.20;88.80;;;;;;5136173;27;20085;-72
2021/05/01 11:40:46;;;;;;;13.90;10.40;;;11.30;85.60;;;;;;5136845;27;20483;-72
2021/05/01 11:43:13;;;;;;;14.23;9.95;;;11.50;88.50;;;;;;5136554;27;20041;-72
2021/05/01 11:45:44;;;;;;;13.05;10.45;;;11.60;87.20;;;;;;5136059;27;20046;-72
2021/05/01 11:48:13;;;;;;;13.82;10.65;;;11.70;88.30;;;;;;5136676;27;20039;-72
2021/05/01 11:50:41;;;;;;;14.07;10.65;;;12.00;87.50;;;;;;5136224;27;20039;-72
2021/05/01 11:53:45;;;;;;;13.32;9.98;;;12.20;88.80;;;;;;5136007;27;20494;-72
2021/05/01 11:56:45;;;;;;;18.10;10.13;;;12.30;86.40;;;;;;5135878;27;20044;-72
2021/05/01 11:59:13;;;;;;;14.50;10.07;;;12.50;88.00;;;;;;5136054;27;20039;-72
2021/05/01 12:01:59;;;;;;;13.88;10.05;;;12.50;84.40;;;;;;5135607;27;20035;-72
2021/05/01 12:04:58;;;;;;;11.85;9.30;;;12.80;85.80;;;;;;5135676;27;20065;-72
2021/05/01 12:07:46;;;;;;;10.20;8.68;;;13.00;84.20;;;;;;5135414;27;20035;-72
2021/05/01 12:10:15;;;;;;;13.48;9.52;;;13.00;83.80;;;;;;5127712;27;20044;-72
2021/05/01 12:12:47;;;;;;;10.63;8.02;;;13.20;86.70;;;;;;5135883;27;20474;-72
2021/05/01 12:15:14;;;;;;;11.68;9.57;;;13.20;82.90;;;;;;5135547;27;20035;-72
2021/05/01 12:17:52;;;;;;;10.88;8.48;;;13.00;82.90;;;;;;5135409;27;20039;-72
2021/05/01 12:20:24;;;;;;;10.90;9.65;;;12.80;81.40;;;;;;5135847;27;20088;-72
2021/05/01 12:22:50;;;;;;;12.88;10.65;;;12.40;80.40;;;;;;5136126;27;20039;-72
2021/05/01 12:25:37;;;;;;;12.75;9.68;;;12.40;83.80;;;;;;5135175;27;20413;-72
2021/05/01 12:28:13;;;;;;;12.18;9.93;;;12.30;81.30;;;;;;5135698;27;20038;-72
2021/05/01 12:30:39;;;;;;;14.30;9.60;;;12.20;82.50;;;;;;5135651;27;20039;-72
2021/05/01 12:33:44;;;;;;;13.95;9.77;;;12.30;85.00;;;;;;5135248;27;20031;-72
2021/05/01 12:36:12;;;;;;;12.02;9.60;;;12.10;83.10;;;;;;5134702;27;20050;-72
2021/05/01 12:38:41;;;;;;;12.85;8.52;;;12.20;84.80;;;;;;5135130;27;20060;-72
2021/05/01 12:41:06;;;;;;;14.88;8.38;;;12.10;84.10;;;;;;5135045;27;20035;-72
2021/05/01 12:43:32;;;;;;;11.25;8.63;;;12.00;83.50;;;;;;5135211;27;20035;-72